Time;durP1;ratioP1;P1;durP2;ratioP2;P2;SDS_P1;SDS_P2;PMS_P1;PMS_P2;Temp;Humidity;BMP_temperature;BMP_pressure;BME280_temperature;BME280_humidity;BME280_pressure;Samples;Min_cycle;Max_cycle;Signal;HPM_P1;HPM_P2
2021/03/21 00:00:17;;;;;;;44.88;16.80;;;;;;;;;;4982371;28;20124;-69
2021/03/21 00:02:43;;;;;;;42.92;15.20;;;;;;;;;;4988858;28;20026;-69
2021/03/21 00:05:09;;;;;;;43.33;17.65;;;;;;;;;;4986371;28;20124;-70
2021/03/21 00:07:35;;;;;;;47.13;17.55;;;;;;;;;;4977339;28;20042;-69
2021/03/21 00:10:02;;;;;;;42.60;16.45;;;;;;;;;;4981588;28;20114;-70
2021/03/21 00:12:28;;;;;;;42.45;16.27;;;;;;;;;;4990901;28;20046;-70
2021/03/21 00:14:54;;;;;;;50.70;18.13;;;;;;;;;;4979043;28;20034;-69
2021/03/21 00:17:20;;;;;;;46.35;16.33;;;;;;;;;;4981050;28;20023;-70
2021/03/21 00:19:46;;;;;;;45.60;16.60;;;;;;;;;;4979294;28;20099;-70
2021/03/21 00:22:12;;;;;;;43.63;15.95;;;;;;;;;;4983109;28;20054;-70
2021/03/21 00:24:38;;;;;;;43.53;16.35;;;;;;;;;;4984471;28;20054;-69
2021/03/21 00:27:04;;;;;;;44.92;16.55;;;;;;;;;;4980000;28;20038;-70
2021/03/21 00:29:30;;;;;;;48.78;17.15;;;;;;;;;;4982533;28;20109;-71
2021/03/21 00:31:56;;;;;;;49.65;15.70;;;;;;;;;;4983291;28;20033;-69
2021/03/21 00:34:22;;;;;;;40.55;15.35;;;;;;;;;;4987452;28;20026;-69
2021/03/21 00:36:48;;;;;;;38.20;14.77;;;;;;;;;;4983954;28;20026;-70
2021/03/21 00:39:14;;;;;;;37.67;15.30;;;;;;;;;;4977022;28;20038;-70
2021/03/21 00:41:40;;;;;;;41.78;14.77;;;;;;;;;;4979546;28;20030;-70
2021/03/21 00:44:07;;;;;;;43.53;16.88;;;;;;;;;;4982334;28;20041;-70
2021/03/21 00:46:33;;;;;;;44.38;17.08;;;;;;;;;;4981817;28;20018;-70
2021/03/21 00:48:59;;;;;;;41.72;16.35;;;;;;;;;;4988104;28;20033;-70
2021/03/21 00:51:25;;;;;;;45.72;17.10;;;;;;;;;;4988966;28;20046;-69
2021/03/21 00:53:51;;;;;;;44.65;15.98;;;;;;;;;;4985947;28;20070;-70
2021/03/21 00:56:29;;;;;;;39.13;16.80;;;;;;;;;;4989557;28;20053;-70
2021/03/21 00:58:58;;;;;;;47.42;18.42;;;;;;;;;;4989530;28;20025;-70
2021/03/21 01:01:24;;;;;;;47.65;17.35;;;;;;;;;;4989274;28;20038;-70
2021/03/21 01:03:50;;;;;;;40.00;16.90;;;;;;;;;;4986512;28;20031;-70
2021/03/21 01:06:16;;;;;;;44.50;16.98;;;;;;;;;;4989945;28;20511;-70
2021/03/21 01:08:42;;;;;;;43.60;16.30;;;;;;;;;;4987355;28;20022;-70
2021/03/21 01:11:19;;;;;;;41.20;16.10;;;;;;;;;;4986069;28;20122;-69
2021/03/21 01:13:45;;;;;;;48.53;16.95;;;;;;;;;;4986190;28;20057;-70
2021/03/21 01:16:16;;;;;;;48.63;17.85;;;;;;;;;;4983564;28;20038;-71
2021/03/21 01:18:42;;;;;;;43.53;17.52;;;;;;;;;;4984022;28;20496;-70
2021/03/21 01:21:11;;;;;;;40.10;15.68;;;;;;;;;;4981381;28;20037;-70
2021/03/21 01:23:41;;;;;;;51.45;18.73;;;;;;;;;;4991357;28;20526;-71
2021/03/21 01:26:07;;;;;;;51.17;18.50;;;;;;;;;;4978989;28;20022;-70
2021/03/21 01:28:34;;;;;;;45.50;16.05;;;;;;;;;;4985170;28;20037;-70
2021/03/21 01:31:01;;;;;;;54.13;17.60;;;;;;;;;;4989535;28;20423;-70
2021/03/21 01:33:28;;;;;;;46.90;18.10;;;;;;;;;;4981182;28;20093;-70
2021/03/21 01:35:54;;;;;;;52.00;17.92;;;;;;;;;;4985416;28;20101;-70
2021/03/21 01:38:21;;;;;;;50.47;19.67;;;;;;;;;;4987517;28;20578;-69
2021/03/21 01:40:51;;;;;;;49.17;18.75;;;;;;;;;;4980375;28;20461;-70
2021/03/21 01:43:18;;;;;;;56.97;19.80;;;;;;;;;;4988674;28;20037;-69
2021/03/21 01:45:46;;;;;;;49.13;16.92;;;;;;;;;;4984752;28;20046;-70
2021/03/21 01:48:21;;;;;;;48.30;17.42;;;;;;;;;;4983813;28;20495;-70
2021/03/21 01:50:49;;;;;;;47.08;16.88;;;;;;;;;;4983005;28;20026;-72
2021/03/21 01:53:18;;;;;;;43.08;17.92;;;;;;;;;;4987839;28;20133;-70
2021/03/21 01:55:45;;;;;;;29.38;10.75;;;;;;;;;;4989366;28;20058;-70
2021/03/21 01:58:12;;;;;;;39.42;16.05;;;;;;;;;;4990349;28;20089;-70
2021/03/21 02:00:38;;;;;;;41.72;17.63;;;;;;;;;;4985393;28;20416;-71
2021/03/21 02:03:05;;;;;;;43.05;17.73;;;;;;;;;;4987268;28;20033;-70
2021/03/21 02:05:31;;;;;;;43.22;17.80;;;;;;;;;;4983922;28;20038;-70
2021/03/21 02:07:57;;;;;;;45.80;16.27;;;;;;;;;;4990021;28;20518;-70
2021/03/21 02:10:31;;;;;;;46.08;17.88;;;;;;;;;;4984560;28;20113;-69
2021/03/21 02:13:00;;;;;;;52.22;19.90;;;;;;;;;;4987232;28;20492;-69
2021/03/21 02:15:26;;;;;;;43.38;17.83;;;;;;;;;;4986712;28;20034;-69
2021/03/21 02:18:10;;;;;;;44.47;19.27;;;;;;;;;;4978606;28;20038;-69
2021/03/21 02:20:53;;;;;;;46.58;20.35;;;;;;;;;;4983638;28;20138;-71
2021/03/21 02:23:37;;;;;;;46.83;20.42;;;;;;;;;;4984888;28;20030;-70
2021/03/21 02:26:20;;;;;;;50.40;19.30;;;;;;;;;;4988085;28;20093;-69
2021/03/21 02:29:05;;;;;;;48.85;20.88;;;;;;;;;;4988288;28;20031;-69
2021/03/21 02:31:39;;;;;;;49.28;19.42;;;;;;;;;;4985659;28;20104;-70
2021/03/21 02:34:07;;;;;;;46.30;21.15;;;;;;;;;;4974901;28;20606;-69
2021/03/21 02:37:02;;;;;;;48.80;20.80;;;;;;;;;;4985716;28;20038;-70
2021/03/21 02:39:31;;;;;;;49.38;19.92;;;;;;;;;;4977916;28;20122;-69
2021/03/21 02:42:00;;;;;;;48.28;22.83;;;;;;;;;;4984495;28;20034;-69
2021/03/21 02:44:29;;;;;;;48.13;20.65;;;;;;;;;;4985983;28;20030;-70
2021/03/21 02:47:01;;;;;;;48.95;22.50;;;;;;;;;;4981691;28;20029;-69
2021/03/21 02:49:32;;;;;;;50.72;23.83;;;;;;;;;;4989371;28;20031;-68
2021/03/21 02:52:01;;;;;;;55.45;24.23;;;;;;;;;;4990724;28;20030;-69
2021/03/21 02:54:51;;;;;;;47.30;23.65;;;;;;;;;;4987234;28;20035;-69
2021/03/21 02:57:20;;;;;;;48.92;27.08;;;;;;;;;;4985591;28;20405;-70
2021/03/21 02:59:50;;;;;;;52.05;28.23;;;;;;;;;;4986566;28;20026;-69
2021/03/21 03:02:36;;;;;;;54.78;29.67;;;;;;;;;;4990822;28;20401;-69
2021/03/21 03:05:09;;;;;;;56.45;31.02;;;;;;;;;;4993830;28;20031;-71
2021/03/21 03:07:35;;;;;;;79.07;32.90;;;;;;;;;;4992345;28;20090;-69
2021/03/21 03:10:22;;;;;;;62.55;32.35;;;;;;;;;;4983736;28;20023;-69
2021/03/21 03:12:52;;;;;;;53.13;29.30;;;;;;;;;;4970759;28;20062;-68
2021/03/21 03:15:19;;;;;;;65.90;34.10;;;;;;;;;;4977920;28;20242;-69
2021/03/21 03:17:47;;;;;;;61.13;32.22;;;;;;;;;;4985589;28;20026;-68
2021/03/21 03:20:16;;;;;;;71.10;35.95;;;;;;;;;;4987267;28;20496;-69
2021/03/21 03:22:42;;;;;;;63.83;32.65;;;;;;;;;;4991442;28;20030;-68
2021/03/21 03:25:14;;;;;;;65.78;35.22;;;;;;;;;;4990122;28;20546;-68
2021/03/21 03:27:40;;;;;;;;;;;;;;;;;;4984520;28;20503;-68
2021/03/21 03:30:18;;;;;;;65.07;34.13;;;;;;;;;;4986838;28;19942;-68
2021/03/21 03:32:44;;;;;;;67.63;35.50;;;;;;;;;;4985468;28;20030;-68
2021/03/21 03:35:12;;;;;;;66.20;35.33;;;;;;;;;;4992780;28;20507;-68
2021/03/21 03:37:38;;;;;;;69.53;35.53;;;;;;;;;;4994455;28;20480;-69
2021/03/21 03:40:06;;;;;;;74.75;38.65;;;;;;;;;;4984251;28;20514;-68
2021/03/21 03:42:44;;;;;;;66.97;34.03;;;;;;;;;;4988771;28;20046;-68
2021/03/21 03:45:10;;;;;;;68.65;34.35;;;;;;;;;;4988734;28;20046;-68
2021/03/21 03:47:55;;;;;;;75.35;38.28;;;;;;;;;;4988291;28;20022;-68
2021/03/21 03:50:31;;;;;;;76.13;37.13;;;;;;;;;;4982037;28;20030;-69
2021/03/21 03:53:10;;;;;;;81.07;40.53;;;;;;;;;;4992177;28;20046;-70
2021/03/21 03:55:40;;;;;;;79.35;39.50;;;;;;;;;;4988946;28;20057;-69
2021/03/21 03:58:09;;;;;;;88.10;40.40;;;;;;;;;;4983229;28;20034;-68
2021/03/21 04:00:45;;;;;;;81.15;40.17;;;;;;;;;;4987626;28;20101;-68
2021/03/21 04:03:17;;;;;;;91.63;42.47;;;;;;;;;;4982481;28;20026;-68
2021/03/21 04:05:54;;;;;;;98.47;40.40;;;;;;;;;;4988102;28;20519;-69
2021/03/21 04:08:38;;;;;;;94.80;42.70;;;;;;;;;;4989138;28;20062;-68
2021/03/21 04:11:13;;;;;;;90.78;39.10;;;;;;;;;;4985989;28;20081;-69
2021/03/21 04:13:41;;;;;;;96.13;43.63;;;;;;;;;;4979515;28;20098;-68
2021/03/21 04:16:10;;;;;;;90.13;40.22;;;;;;;;;;4978926;28;20118;-69
2021/03/21 04:18:39;;;;;;;89.00;39.78;;;;;;;;;;4988992;28;20061;-68
2021/03/21 04:21:08;;;;;;;90.32;39.42;;;;;;;;;;4992302;28;20031;-68
2021/03/21 04:23:49;;;;;;;86.88;34.75;;;;;;;;;;4995500;28;20559;-68
2021/03/21 04:26:18;;;;;;;84.22;35.95;;;;;;;;;;4982946;28;20022;-68
2021/03/21 04:28:48;;;;;;;84.25;33.53;;;;;;;;;;4980182;28;20037;-68
2021/03/21 04:31:15;;;;;;;87.88;34.58;;;;;;;;;;4989735;28;20037;-68
2021/03/21 04:33:47;;;;;;;67.65;31.75;;;;;;;;;;4988389;28;20023;-68
2021/03/21 04:36:17;;;;;;;75.10;32.75;;;;;;;;;;4987270;28;20031;-68
2021/03/21 04:38:50;;;;;;;74.30;31.98;;;;;;;;;;4984343;28;20041;-69
2021/03/21 04:41:22;;;;;;;70.00;29.15;;;;;;;;;;4988284;28;20648;-68
2021/03/21 04:43:56;;;;;;;67.55;28.27;;;;;;;;;;4985412;28;20042;-69
2021/03/21 04:46:25;;;;;;;67.00;27.13;;;;;;;;;;4979401;28;20037;-69
2021/03/21 04:48:52;;;;;;;61.20;27.00;;;;;;;;;;4985089;28;20093;-68
2021/03/21 04:51:26;;;;;;;62.88;25.08;;;;;;;;;;4982451;28;20015;-69
2021/03/21 04:53:55;;;;;;;63.45;24.40;;;;;;;;;;4988040;28;20057;-68
2021/03/21 04:56:27;;;;;;;48.10;20.17;;;;;;;;;;4989651;28;20030;-67
2021/03/21 04:58:54;;;;;;;42.40;18.05;;;;;;;;;;4989741;28;20041;-68
2021/03/21 05:01:32;;;;;;;33.47;14.80;;;;;;;;;;4991561;28;20025;-69
2021/03/21 05:04:04;;;;;;;32.05;12.13;;;;;;;;;;4986263;28;20026;-69
2021/03/21 05:06:35;;;;;;;21.83;10.07;;;;;;;;;;4989686;28;20021;-68
2021/03/21 05:09:04;;;;;;;27.17;8.95;;;;;;;;;;4988118;28;20030;-68
2021/03/21 05:11:41;;;;;;;18.70;5.68;;;;;;;;;;4982990;28;20054;-70
2021/03/21 05:14:14;;;;;;;18.40;4.60;;;;;;;;;;4977962;28;20030;-68
2021/03/21 05:17:01;;;;;;;24.88;5.20;;;;;;;;;;4993090;28;20057;-72
2021/03/21 05:19:46;;;;;;;22.05;4.32;;;;;;;;;;4976021;28;20027;-68
2021/03/21 05:22:41;;;;;;;14.80;4.22;;;;;;;;;;4981381;28;20034;-69
2021/03/21 05:25:07;;;;;;;13.55;4.03;;;;;;;;;;4968262;28;20038;-69
2021/03/21 05:27:42;;;;;;;15.18;3.70;;;;;;;;;;4991662;28;20053;-69
2021/03/21 05:30:16;;;;;;;22.52;4.38;;;;;;;;;;4980879;28;20023;-69
2021/03/21 05:32:43;;;;;;;19.95;4.07;;;;;;;;;;4984395;28;20057;-68
2021/03/21 05:35:14;;;;;;;21.67;3.53;;;;;;;;;;4986048;28;20029;-68
2021/03/21 05:37:46;;;;;;;17.20;4.63;;;;;;;;;;4982462;28;20031;-70
2021/03/21 05:40:12;;;;;;;15.25;4.22;;;;;;;;;;4984671;28;20026;-69
2021/03/21 05:42:41;;;;;;;13.32;3.25;;;;;;;;;;4984778;28;20031;-68
2021/03/21 05:45:17;;;;;;;23.90;3.92;;;;;;;;;;4989940;28;20496;-68
2021/03/21 05:48:02;;;;;;;14.05;3.88;;;;;;;;;;4992873;28;20030;-69
2021/03/21 05:50:52;;;;;;;23.52;3.30;;;;;;;;;;4979893;28;20037;-69
2021/03/21 05:53:24;;;;;;;15.57;3.55;;;;;;;;;;4980550;28;20062;-69
2021/03/21 05:55:50;;;;;;;15.00;3.17;;;;;;;;;;4986254;28;20521;-69
2021/03/21 05:58:35;;;;;;;14.23;3.28;;;;;;;;;;4987737;28;20026;-70
2021/03/21 06:01:01;;;;;;;18.40;3.10;;;;;;;;;;4990092;28;20034;-69
2021/03/21 06:03:47;;;;;;;13.65;2.90;;;;;;;;;;4979885;28;20034;-69
2021/03/21 06:06:16;;;;;;;13.65;2.72;;;;;;;;;;4988940;28;20657;-68
2021/03/21 06:08:48;;;;;;;19.48;2.83;;;;;;;;;;4985620;28;20151;-69
2021/03/21 06:11:24;;;;;;;13.95;2.67;;;;;;;;;;4970982;28;20026;-68
2021/03/21 06:14:03;;;;;;;19.30;3.30;;;;;;;;;;4981354;28;20077;-69
2021/03/21 06:16:48;;;;;;;15.40;3.08;;;;;;;;;;4981607;28;20034;-68
2021/03/21 06:19:32;;;;;;;18.67;3.47;;;;;;;;;;4983928;28;20034;-69
2021/03/21 06:22:17;;;;;;;20.65;3.75;;;;;;;;;;4981773;28;20033;-68
2021/03/21 06:24:52;;;;;;;24.52;4.07;;;;;;;;;;4979740;28;20039;-69
2021/03/21 06:27:37;;;;;;;17.13;2.42;;;;;;;;;;4990425;28;20149;-69
2021/03/21 06:30:24;;;;;;;18.15;4.63;;;;;;;;;;4978593;28;20026;-68
2021/03/21 06:33:06;;;;;;;14.85;2.80;;;;;;;;;;4984221;28;20030;-69
2021/03/21 06:35:45;;;;;;;17.65;2.58;;;;;;;;;;4981555;28;20073;-68
2021/03/21 06:38:14;;;;;;;18.90;3.85;;;;;;;;;;4981830;28;20127;-68
2021/03/21 06:41:16;;;;;;;19.35;3.15;;;;;;;;;;4985843;28;20070;-69
2021/03/21 06:43:45;;;;;;;20.20;4.68;;;;;;;;;;4947441;29;20189;-68
2021/03/21 06:46:20;;;;;;;19.17;4.15;;;;;;;;;;4967259;28;20045;-69
2021/03/21 06:48:52;;;;;;;15.65;4.00;;;;;;;;;;4992965;28;20030;-69
2021/03/21 06:51:18;;;;;;;;;;;;;;;;;;4994647;28;20033;-69
2021/03/21 06:53:53;;;;;;;18.80;3.45;;;;;;;;;;4992933;28;19957;-69
2021/03/21 06:56:28;;;;;;;20.27;4.05;;;;;;;;;;4983621;28;20022;-69
2021/03/21 06:59:13;;;;;;;21.08;3.55;;;;;;;;;;4992223;28;20488;-69
2021/03/21 07:01:41;;;;;;;23.80;5.03;;;;;;;;;;4990390;28;20030;-69
2021/03/21 07:04:10;;;;;;;20.67;3.83;;;;;;;;;;4993310;28;20030;-68
2021/03/21 07:06:55;;;;;;;25.13;4.82;;;;;;;;;;4986453;28;20023;-70
2021/03/21 07:09:39;;;;;;;15.02;2.90;;;;;;;;;;4990068;28;20093;-69
2021/03/21 07:12:18;;;;;;;14.85;3.58;;;;;;;;;;4994344;28;20019;-70
2021/03/21 07:14:47;;;;;;;20.85;4.07;;;;;;;;;;4991206;28;20046;-69
2021/03/21 07:17:19;;;;;;;20.38;3.55;;;;;;;;;;4986760;28;20034;-69
2021/03/21 07:20:04;;;;;;;15.50;3.22;;;;;;;;;;4983514;28;20061;-69
2021/03/21 07:22:50;;;;;;;17.92;3.58;;;;;;;;;;4981341;28;20038;-69
2021/03/21 07:25:19;;;;;;;19.92;3.00;;;;;;;;;;4951184;28;20038;-69
2021/03/21 07:27:54;;;;;;;15.70;3.78;;;;;;;;;;4986284;28;20027;-70
2021/03/21 07:30:32;;;;;;;18.48;3.45;;;;;;;;;;4983322;28;20034;-68
2021/03/21 07:33:05;;;;;;;21.95;4.05;;;;;;;;;;4977504;28;20058;-68
2021/03/21 07:35:34;;;;;;;27.08;4.22;;;;;;;;;;4982765;28;20555;-68
2021/03/21 07:38:09;;;;;;;21.02;3.60;;;;;;;;;;4984040;28;20097;-69
2021/03/21 07:40:58;;;;;;;25.02;3.92;;;;;;;;;;4981628;28;20050;-68
2021/03/21 07:43:24;;;;;;;31.30;4.22;;;;;;;;;;4989417;28;20027;-68
2021/03/21 07:45:50;;;;;;;28.10;4.45;;;;;;;;;;4979087;28;20034;-68
2021/03/21 07:48:33;;;;;;;17.55;3.85;;;;;;;;;;4988293;28;20041;-68
2021/03/21 07:51:02;;;;;;;28.20;3.97;;;;;;;;;;4981119;28;20018;-69
2021/03/21 07:53:42;;;;;;;26.60;3.58;;;;;;;;;;4987618;28;20043;-68
2021/03/21 07:56:11;;;;;;;21.08;3.83;;;;;;;;;;4986317;28;20026;-68
2021/03/21 07:58:41;;;;;;;23.40;3.70;;;;;;;;;;4985211;28;20681;-68
2021/03/21 08:01:07;;;;;;;22.50;3.80;;;;;;;;;;4986671;28;20026;-69
2021/03/21 08:03:33;;;;;;;21.30;4.90;;;;;;;;;;4980125;28;20035;-68
2021/03/21 08:06:00;;;;;;;29.92;5.18;;;;;;;;;;4987012;28;20485;-68
2021/03/21 08:08:27;;;;;;;25.92;3.80;;;;;;;;;;4976209;28;20031;-69
2021/03/21 08:10:56;;;;;;;19.92;3.75;;;;;;;;;;4981033;28;20097;-69
2021/03/21 08:13:31;;;;;;;28.40;5.32;;;;;;;;;;4981804;28;20026;-68
2021/03/21 08:15:58;;;;;;;27.20;3.70;;;;;;;;;;4982869;28;20114;-69
2021/03/21 08:18:30;;;;;;;31.08;4.10;;;;;;;;;;4979817;28;20029;-68
2021/03/21 08:20:58;;;;;;;23.77;3.83;;;;;;;;;;4984111;28;20105;-68
2021/03/21 08:23:30;;;;;;;29.35;6.15;;;;;;;;;;4978601;28;20533;-68
2021/03/21 08:25:58;;;;;;;28.23;3.88;;;;;;;;;;4980516;28;20058;-69
2021/03/21 08:28:35;;;;;;;26.35;3.75;;;;;;;;;;4978884;28;20027;-68
2021/03/21 08:31:02;;;;;;;34.15;4.00;;;;;;;;;;4984028;28;20028;-68
2021/03/21 08:33:30;;;;;;;28.98;5.10;;;;;;;;;;4985229;28;20042;-71
2021/03/21 08:36:12;;;;;;;16.50;3.33;;;;;;;;;;4980147;28;20027;-68
2021/03/21 08:38:38;;;;;;;20.83;4.05;;;;;;;;;;4987292;28;20022;-69
2021/03/21 08:41:06;;;;;;;19.98;4.43;;;;;;;;;;4986150;28;20030;-69
2021/03/21 08:43:34;;;;;;;28.40;4.15;;;;;;;;;;4984671;28;20038;-69
2021/03/21 08:46:00;;;;;;;23.58;3.28;;;;;;;;;;4988859;28;20042;-68
2021/03/21 08:48:30;;;;;;;27.05;3.75;;;;;;;;;;4978492;28;20033;-68
2021/03/21 08:50:57;;;;;;;24.95;4.60;;;;;;;;;;4979221;28;20042;-69
2021/03/21 08:53:23;;;;;;;27.48;3.53;;;;;;;;;;4979495;28;20057;-67
2021/03/21 08:56:08;;;;;;;22.92;3.72;;;;;;;;;;4979767;28;20421;-69
2021/03/21 08:58:34;;;;;;;22.63;3.90;;;;;;;;;;4974859;28;20023;-68
2021/03/21 09:01:08;;;;;;;21.60;3.97;;;;;;;;;;4982866;28;20113;-69
2021/03/21 09:03:35;;;;;;;23.95;3.70;;;;;;;;;;4989767;28;20031;-68
2021/03/21 09:06:01;;;;;;;24.60;4.25;;;;;;;;;;4985080;28;20042;-69
2021/03/21 09:08:28;;;;;;;20.15;3.10;;;;;;;;;;4985659;28;20101;-68
2021/03/21 09:10:55;;;;;;;31.50;4.22;;;;;;;;;;4977562;28;20093;-68
2021/03/21 09:13:23;;;;;;;20.10;3.30;;;;;;;;;;4982763;28;20030;-68
2021/03/21 09:15:59;;;;;;;25.65;4.30;;;;;;;;;;4991061;28;20187;-68
2021/03/21 09:18:26;;;;;;;21.02;3.17;;;;;;;;;;4979292;28;20027;-70
2021/03/21 09:21:08;;;;;;;19.17;4.22;;;;;;;;;;4979510;28;20045;-70
2021/03/21 09:23:34;;;;;;;;;;;;;;;;;;4986382;28;20026;-70
2021/03/21 09:26:01;;;;;;;32.92;5.28;;;;;;;;;;4982246;28;19917;-70
2021/03/21 09:28:32;;;;;;;20.05;3.53;;;;;;;;;;4982168;28;20312;-69
2021/03/21 09:31:00;;;;;;;26.10;3.90;;;;;;;;;;4982344;28;20165;-68
2021/03/21 09:33:32;;;;;;;22.48;3.50;;;;;;;;;;4978246;28;21760;-69
2021/03/21 09:35:58;;;;;;;;;;;;;;;;;;4981962;28;20157;-69
2021/03/21 09:38:25;;;;;;;22.55;3.97;;;;;;;;;;4979306;28;20025;-69
2021/03/21 09:40:53;;;;;;;31.08;4.32;;;;;;;;;;4982642;28;20069;-70
2021/03/21 09:43:27;;;;;;;14.30;2.92;;;;;;;;;;4984134;28;20042;-69
2021/03/21 09:46:01;;;;;;;24.20;2.65;;;;;;;;;;4980611;28;20516;-70
2021/03/21 09:48:45;;;;;;;23.45;3.13;;;;;;;;;;4980779;28;20046;-68
2021/03/21 09:51:23;;;;;;;28.17;3.88;;;;;;;;;;4976565;28;20037;-69
2021/03/21 09:54:04;;;;;;;20.77;2.67;;;;;;;;;;4981003;28;20070;-69
2021/03/21 09:56:30;;;;;;;19.30;3.75;;;;;;;;;;4981728;28;20054;-68
2021/03/21 09:59:01;;;;;;;23.33;3.15;;;;;;;;;;4982654;28;20692;-69
2021/03/21 10:01:38;;;;;;;30.08;3.33;;;;;;;;;;4982827;28;20751;-71
2021/03/21 10:04:19;;;;;;;24.35;3.70;;;;;;;;;;4983066;28;20440;-69
2021/03/21 10:06:46;;;;;;;13.80;2.80;;;;;;;;;;4982306;28;20065;-69
2021/03/21 10:09:14;;;;;;;21.23;3.08;;;;;;;;;;4981952;28;20037;-70
2021/03/21 10:11:43;;;;;;;20.20;3.63;;;;;;;;;;4986480;28;20052;-70
2021/03/21 10:14:22;;;;;;;21.73;3.17;;;;;;;;;;4990625;28;20034;-71
2021/03/21 10:16:52;;;;;;;23.25;4.22;;;;;;;;;;4985680;28;20096;-69
2021/03/21 10:19:37;;;;;;;21.48;4.47;;;;;;;;;;4983155;28;20492;-68
2021/03/21 10:22:23;;;;;;;35.75;5.63;;;;;;;;;;4989691;28;20030;-68
2021/03/21 10:24:50;;;;;;;19.63;3.20;;;;;;;;;;4990090;28;20712;-71
2021/03/21 10:27:25;;;;;;;24.40;3.60;;;;;;;;;;4990898;28;20081;-69
2021/03/21 10:29:57;;;;;;;25.42;3.53;;;;;;;;;;4987757;28;20488;-68
2021/03/21 10:32:23;;;;;;;;;;;;;;;;;;5000137;28;20033;-69
2021/03/21 10:34:50;;;;;;;19.42;3.25;;;;;;;;;;4990664;28;20355;-69
2021/03/21 10:37:35;;;;;;;22.17;3.83;;;;;;;;;;4983502;28;20485;-68
2021/03/21 10:40:05;;;;;;;30.02;4.63;;;;;;;;;;4987515;28;20034;-70
2021/03/21 10:42:39;;;;;;;23.70;3.97;;;;;;;;;;4988623;28;20048;-69
2021/03/21 10:45:06;;;;;;;35.00;4.95;;;;;;;;;;4986882;28;20053;-70
2021/03/21 10:47:35;;;;;;;21.55;4.47;;;;;;;;;;4985319;28;20022;-69
2021/03/21 10:50:04;;;;;;;22.42;3.05;;;;;;;;;;4991173;28;20030;-70
2021/03/21 10:52:30;;;;;;;34.28;4.93;;;;;;;;;;4992866;28;20132;-70
2021/03/21 10:55:14;;;;;;;26.33;4.32;;;;;;;;;;4993101;28;20731;-69
2021/03/21 10:57:43;;;;;;;26.98;3.78;;;;;;;;;;4979323;28;20027;-71
2021/03/21 11:00:12;;;;;;;28.30;4.97;;;;;;;;;;4986732;28;20053;-70
2021/03/21 11:02:43;;;;;;;43.22;6.80;;;;;;;;;;4988344;28;20033;-70
2021/03/21 11:05:23;;;;;;;38.47;4.50;;;;;;;;;;4993744;28;20030;-68
2021/03/21 11:07:49;;;;;;;29.50;5.15;;;;;;;;;;4988298;28;20026;-68
2021/03/21 11:10:15;;;;;;;31.88;6.35;;;;;;;;;;4985402;28;20027;-69
2021/03/21 11:12:43;;;;;;;37.10;5.82;;;;;;;;;;4989981;28;20088;-69
2021/03/21 11:15:35;;;;;;;34.38;5.68;;;;;;;;;;4976130;28;20030;-68
2021/03/21 11:18:03;;;;;;;43.90;5.80;;;;;;;;;;4983170;28;20069;-70
2021/03/21 11:20:31;;;;;;;41.88;6.18;;;;;;;;;;4987178;28;20034;-69
2021/03/21 11:22:58;;;;;;;44.05;7.72;;;;;;;;;;4989288;28;20033;-68
2021/03/21 11:25:32;;;;;;;37.88;5.50;;;;;;;;;;4988279;28;20033;-68
2021/03/21 11:27:58;;;;;;;37.78;6.40;;;;;;;;;;4981191;28;20034;-68
2021/03/21 11:30:28;;;;;;;33.90;5.57;;;;;;;;;;4981469;28;20029;-68
2021/03/21 11:32:59;;;;;;;38.60;6.65;;;;;;;;;;4986481;28;20019;-69
2021/03/21 11:35:29;;;;;;;34.33;5.45;;;;;;;;;;4983977;28;20046;-69
2021/03/21 11:37:57;;;;;;;28.27;5.00;;;;;;;;;;4983192;28;20061;-68
2021/03/21 11:40:27;;;;;;;33.47;5.57;;;;;;;;;;4976223;28;20026;-68
2021/03/21 11:43:05;;;;;;;34.45;5.85;;;;;;;;;;4988394;28;20051;-68
2021/03/21 11:45:36;;;;;;;39.13;5.82;;;;;;;;;;4983738;28;20034;-67
2021/03/21 11:48:08;;;;;;;31.35;5.55;;;;;;;;;;4984344;28;20027;-68
2021/03/21 11:50:35;;;;;;;26.30;5.97;;;;;;;;;;4988664;28;20037;-69
2021/03/21 11:53:02;;;;;;;33.78;5.10;;;;;;;;;;4988371;28;20130;-69
2021/03/21 11:55:30;;;;;;;26.17;5.00;;;;;;;;;;4980875;28;20109;-68
2021/03/21 11:58:18;;;;;;;25.70;5.38;;;;;;;;;;4981343;28;20022;-68
2021/03/21 12:00:59;;;;;;;33.67;4.63;;;;;;;;;;4981704;28;20027;-68
2021/03/21 12:03:25;;;;;;;22.75;3.80;;;;;;;;;;4983347;28;20026;-68
2021/03/21 12:05:59;;;;;;;31.75;5.00;;;;;;;;;;4985991;28;20034;-70
2021/03/21 12:08:36;;;;;;;30.33;6.72;;;;;;;;;;4988131;28;20030;-69
2021/03/21 12:11:19;;;;;;;28.42;4.55;;;;;;;;;;4981373;28;20022;-70
2021/03/21 12:13:46;;;;;;;33.60;5.43;;;;;;;;;;4983073;28;20400;-69
2021/03/21 12:16:30;;;;;;;33.45;4.70;;;;;;;;;;4981592;28;20284;-69
2021/03/21 12:18:57;;;;;;;36.60;5.65;;;;;;;;;;4984254;28;20097;-69
2021/03/21 12:21:24;;;;;;;29.58;4.65;;;;;;;;;;4980725;28;20027;-69
2021/03/21 12:23:52;;;;;;;26.63;4.32;;;;;;;;;;4982073;28;20019;-68
2021/03/21 12:26:45;;;;;;;25.02;5.28;;;;;;;;;;4991231;28;20069;-68
2021/03/21 12:29:40;;;;;;;33.53;5.78;;;;;;;;;;4952944;28;20030;-68
2021/03/21 12:32:14;;;;;;;23.02;4.70;;;;;;;;;;4975580;28;20512;-69
2021/03/21 12:34:51;;;;;;;26.77;5.90;;;;;;;;;;4981906;28;20500;-69
2021/03/21 12:37:18;;;;;;;27.75;5.20;;;;;;;;;;4995128;28;20041;-70
2021/03/21 12:39:51;;;;;;;31.10;5.80;;;;;;;;;;4984543;28;20038;-69
2021/03/21 12:42:44;;;;;;;34.35;5.85;;;;;;;;;;4978853;28;20027;-69
2021/03/21 12:45:23;;;;;;;31.70;5.20;;;;;;;;;;4983432;28;20050;-70
2021/03/21 12:47:56;;;;;;;30.70;6.45;;;;;;;;;;4983692;28;20038;-69
2021/03/21 12:50:25;;;;;;;33.35;6.68;;;;;;;;;;4978075;28;20081;-70
2021/03/21 12:52:51;;;;;;;41.13;6.65;;;;;;;;;;4981532;28;20197;-69
2021/03/21 12:55:18;;;;;;;35.92;6.05;;;;;;;;;;4990502;28;20037;-70
2021/03/21 12:57:44;;;;;;;46.42;5.35;;;;;;;;;;4999637;28;20065;-70
2021/03/21 13:00:17;;;;;;;30.65;5.63;;;;;;;;;;4986923;28;20066;-68
2021/03/21 13:02:43;;;;;;;26.98;4.65;;;;;;;;;;4988570;28;20038;-69
2021/03/21 13:05:18;;;;;;;37.42;6.07;;;;;;;;;;4991565;28;20026;-68
2021/03/21 13:07:44;;;;;;;40.83;5.47;;;;;;;;;;4987273;28;20478;-68
2021/03/21 13:10:10;;;;;;;30.83;5.72;;;;;;;;;;4976859;28;20023;-68
2021/03/21 13:12:36;;;;;;;29.30;5.82;;;;;;;;;;4981079;28;20025;-68
2021/03/21 13:15:03;;;;;;;32.88;5.18;;;;;;;;;;4987955;28;20067;-68
2021/03/21 13:17:29;;;;;;;29.63;5.13;;;;;;;;;;4989321;28;20030;-68
2021/03/21 13:19:55;;;;;;;28.88;4.90;;;;;;;;;;4988774;28;20033;-67
2021/03/21 13:22:21;;;;;;;30.02;5.10;;;;;;;;;;4990308;28;20444;-69
2021/03/21 13:24:47;;;;;;;32.47;5.85;;;;;;;;;;4990742;28;20116;-68
2021/03/21 13:27:13;;;;;;;29.98;5.53;;;;;;;;;;4981297;28;20476;-69
2021/03/21 13:29:39;;;;;;;32.92;4.50;;;;;;;;;;4987905;28;20022;-68
2021/03/21 13:32:05;;;;;;;32.17;4.78;;;;;;;;;;5000310;28;20025;-67
2021/03/21 13:34:32;;;;;;;33.75;6.60;;;;;;;;;;4982862;28;20041;-68
2021/03/21 13:36:59;;;;;;;30.83;5.88;;;;;;;;;;4986608;28;20033;-67
2021/03/21 13:39:25;;;;;;;27.73;4.68;;;;;;;;;;4987604;28;20543;-67
2021/03/21 13:41:51;;;;;;;40.33;5.32;;;;;;;;;;4990593;28;20506;-68
2021/03/21 13:44:18;;;;;;;33.20;4.82;;;;;;;;;;4987701;28;20092;-68
2021/03/21 13:46:46;;;;;;;24.08;4.90;;;;;;;;;;4985137;28;20031;-67
2021/03/21 13:49:12;;;;;;;36.55;5.25;;;;;;;;;;4989982;28;20027;-69
2021/03/21 13:51:39;;;;;;;32.50;4.90;;;;;;;;;;4982963;28;20023;-69
2021/03/21 13:54:05;;;;;;;27.60;4.75;;;;;;;;;;4981990;28;20472;-68
2021/03/21 13:56:31;;;;;;;38.88;6.07;;;;;;;;;;4979316;28;20022;-69
2021/03/21 13:58:57;;;;;;;30.75;4.85;;;;;;;;;;4985940;28;20109;-67
2021/03/21 14:01:23;;;;;;;33.60;6.03;;;;;;;;;;4988669;28;20026;-68
2021/03/21 14:03:49;;;;;;;34.10;5.65;;;;;;;;;;4983232;28;20037;-69
2021/03/21 14:06:15;;;;;;;36.50;6.43;;;;;;;;;;4986620;28;20117;-68
2021/03/21 14:08:41;;;;;;;38.03;6.70;;;;;;;;;;4978130;28;20031;-67
2021/03/21 14:11:07;;;;;;;28.15;5.90;;;;;;;;;;4992113;28;20029;-71
2021/03/21 14:13:33;;;;;;;32.60;4.97;;;;;;;;;;4991161;28;20068;-69
2021/03/21 14:15:59;;;;;;;34.45;6.25;;;;;;;;;;4984503;28;20038;-69
2021/03/21 14:18:26;;;;;;;32.38;5.57;;;;;;;;;;4983902;28;20910;-68
2021/03/21 14:20:53;;;;;;;31.42;6.20;;;;;;;;;;4981019;28;20030;-69
2021/03/21 14:23:21;;;;;;;32.75;6.20;;;;;;;;;;4982290;28;20121;-68
2021/03/21 14:25:47;;;;;;;35.47;5.45;;;;;;;;;;4986551;28;20109;-68
2021/03/21 14:28:14;;;;;;;35.03;6.10;;;;;;;;;;4982521;28;20030;-68
2021/03/21 14:30:41;;;;;;;40.78;5.63;;;;;;;;;;4985050;28;20110;-70
2021/03/21 14:33:07;;;;;;;28.40;4.90;;;;;;;;;;4986202;28;20041;-69
2021/03/21 14:35:36;;;;;;;38.08;5.07;;;;;;;;;;4982483;28;20015;-69
2021/03/21 14:38:04;;;;;;;30.73;5.53;;;;;;;;;;4985031;28;20208;-70
2021/03/21 14:40:30;;;;;;;29.95;4.43;;;;;;;;;;4986721;28;20041;-70
2021/03/21 14:42:56;;;;;;;34.15;5.35;;;;;;;;;;4981328;28;20125;-68
2021/03/21 14:45:22;;;;;;;38.55;5.72;;;;;;;;;;4989622;28;20026;-69
2021/03/21 14:47:48;;;;;;;37.63;6.07;;;;;;;;;;4991389;28;20025;-68
2021/03/21 14:50:15;;;;;;;43.08;5.07;;;;;;;;;;4985090;28;20134;-70